This is the latest recevied weather packets stored in our database for station/object DD6UBW. If no packets are shown the sender has not sent any weather packets the latest 1 day(s).
| Time | Temp. | Humidity | Pressure | Rain* | Wind** | Luminosity | Snow |
|---|---|---|---|---|---|---|---|
| 1836274676 | 13.33° C | 90% | 1017.6 hPa | 0 mm | 0 m/s | - | - |
| 1778027401 | 12.22° C | 87% | 1005.6 hPa | 0.76 mm | 0.89 m/s, 25° | - | - |
| 1778025600 | 12.22° C | 87% | 1006.6 hPa | 0.25 mm | 1.79 m/s, 220° | - | - |
| 1778023801 | 12.22° C | 87% | 1006.6 hPa | 0.25 mm | 1.34 m/s, 10° | - | - |
| 1778022001 | 12.22° C | 86% | 1006.6 hPa | 0.25 mm | 0.89 m/s, 90° | - | - |
| 1778020201 | 12.22° C | 85% | 1006.6 hPa | 0 mm | 2.24 m/s, 25° | - | - |
| 1778018402 | 12.22° C | 85% | 1006.6 hPa | 0 mm | 0.89 m/s, 265° | - | - |
| 1778016601 | 12.78° C | 85% | 1006.6 hPa | 0 mm | 1.79 m/s, 55° | - | - |
| 1778014801 | 12.78° C | 84% | 1006.6 hPa | 0 mm | 1.79 m/s, 45° | - | - |
| 1778013001 | 13.33° C | 84% | 1007.6 hPa | 0 mm | 1.79 m/s, 60° | - | - |
| 1778011201 | 13.33° C | 83% | 1006.6 hPa | 0 mm | 2.24 m/s, 35° | - | - |
| 1778009403 | 13.89° C | 82% | 1006.6 hPa | 0 mm | 1.79 m/s, 25° | - | - |
| 1778007601 | 15° C | 80% | 1006.6 hPa | 0 mm | 2.24 m/s, 125° | - | - |
| 1778004001 | 16.11° C | 76% | 1006.6 hPa | 0 mm | 2.24 m/s, 85° | - | - |
| 1778002201 | 16.67° C | 74% | 1006.6 hPa | 0 mm | 1.79 m/s, 50° | - | - |
| 1778000400 | 17.22° C | 73% | 1006.6 hPa | 0 mm | 1.34 m/s, 60° | - | - |
| 1777996801 | 17.78° C | 70% | 1007.6 hPa | 0 mm | 1.34 m/s, 240° | - | - |
| 1777995000 | 17.78° C | 71% | 1007.6 hPa | 0 mm | 2.24 m/s, 55° | - | - |
| 1777993201 | 18.33° C | 69% | 1007.6 hPa | 0 mm | 1.79 m/s, 140° | - | - |
| 1777991401 | 18.89° C | 68% | 1007.6 hPa | 0 mm | 0.89 m/s, 165° | - | - |
| 1777989600 | 20° C | 65% | 1007.6 hPa | 0 mm | 0.45 m/s, 270° | - | - |
| 1777987801 | 18.33° C | 68% | 1007.6 hPa | 0 mm | 0.89 m/s, 35° | - | - |
| 1777986001 | 18.89° C | 67% | 1007.6 hPa | 0 mm | 0.89 m/s, 175° | - | - |
| 1777984201 | 19.44° C | 67% | 1007.6 hPa | 0 mm | 0.45 m/s, 165° | - | - |
| 1777982400 | 18.33° C | 70% | 1008.6 hPa | 0 mm | 0.45 m/s, 60° | - | - |
* Rain since midnight (hover to see other rain measurements)
** Current wind speed in m/s (hover to see current wind gust speed)